Nome の空港の天気 - METARとTAF

Nome, Nome Airport ( PAOM / OME ) - アメリカ アラスカ州Nome
飛行場実況気象(Metar)
観測時間01/22 19:00 AKST (01/23 04:00 UTC)
風向・風速静穏 0m/s
視程10km以上
天気現象
全天を覆う雲 雲底高度 490m
気温-28.3℃
湿度81%
気圧1028hPa
METARPAOM 230400Z 00000KT 10SM OVC016 M28/M31 A3035 RMK AO2 T12831306 $
過去の天気等 Google飛行場航空写真 Wunderground天気予報

過去48時間のMETAR

飛行場予報(TAF)
発表時間: 1/22 14:32 AKST (1/22 23:32 UTC)
予報対象時間: 22日15時 AKST ~ 23日15時 AKST
風向・風速不定 2m/s
視程10km以上
少しの雲 雲底高度 610m
全天の4割程度の雲 雲底高度 1,520m
PAOM 222332Z 2300/2324 VRB03KT P6SM FEW020 SCT050